createdAt,value
2018-01-06T00:00:23.436Z,5.72
2018-01-06T00:01:23.157Z,5.68
2018-01-06T00:02:23.411Z,5.61
2018-01-06T00:03:22.882Z,5.67
2018-01-06T00:04:23.131Z,5.65
2018-01-06T00:05:23.389Z,5.49
2018-01-06T00:06:23.363Z,5.56
2018-01-06T00:07:23.079Z,5.53
2018-01-06T00:08:23.338Z,5.64
2018-01-06T00:09:22.825Z,5.67
2018-01-06T00:10:23.303Z,5.61
2018-01-06T00:11:23.297Z,5.51
2018-01-06T00:12:23.016Z,5.58
2018-01-06T00:13:23.274Z,5.58
2018-01-06T00:14:23.259Z,5.51
2018-01-06T00:15:23.248Z,5.51
2018-01-06T00:16:23.234Z,5.49
2018-01-06T00:17:23.227Z,5.56
2018-01-06T00:18:23.201Z,5.43
2018-01-06T00:19:23.190Z,5.51
2018-01-06T00:20:23.204Z,5.42
2018-01-06T00:21:23.170Z,5.4
2018-01-06T00:22:23.160Z,5.36
2018-01-06T00:23:23.154Z,5.42
2018-01-06T00:24:23.128Z,5.4
2018-01-06T00:25:23.115Z,5.33
2018-01-06T00:26:22.856Z,5.42
2018-01-06T00:27:23.083Z,5.36
2018-01-06T00:28:23.083Z,5.36
2018-01-06T00:29:23.059Z,5.39
2018-01-06T00:30:23.062Z,5.4
2018-01-06T00:31:23.029Z,5.35
2018-01-06T00:32:23.020Z,5.48
2018-01-06T00:33:23.012Z,5.39
2018-01-06T00:34:23.011Z,5.42
2018-01-06T00:35:22.988Z,5.45
2018-01-06T00:36:22.725Z,5.39
2018-01-06T00:37:22.699Z,5.4
2018-01-06T00:38:22.945Z,5.42
2018-01-06T00:39:22.682Z,5.46
2018-01-06T00:40:22.656Z,5.48
2018-01-06T00:41:22.650Z,5.42
2018-01-06T00:42:22.919Z,5.46
2018-01-06T00:43:22.888Z,5.49
2018-01-06T00:44:22.876Z,5.48
2018-01-06T00:45:22.863Z,5.53
2018-01-06T00:46:22.585Z,5.57
2018-01-06T00:47:22.829Z,5.48
2018-01-06T00:48:22.809Z,5.48
2018-01-06T00:49:22.805Z,5.48
2018-01-06T00:50:22.524Z,5.56
2018-01-06T00:51:22.791Z,5.53
2018-01-06T00:52:22.769Z,5.56
2018-01-06T00:53:22.496Z,5.51
2018-01-06T00:54:22.738Z,5.6
2018-01-06T00:55:22.734Z,5.6
2018-01-06T00:56:22.723Z,5.57
2018-01-06T00:57:22.702Z,5.58
2018-01-06T00:58:22.691Z,5.58
2018-01-06T00:59:22.673Z,5.57
2018-01-06T01:00:22.661Z,5.64
2018-01-06T01:01:22.653Z,5.64
2018-01-06T01:02:22.635Z,5.6
2018-01-06T01:03:22.635Z,5.56
2018-01-06T01:04:22.606Z,5.63
2018-01-06T01:05:22.603Z,5.54
2018-01-06T01:06:22.593Z,5.54
2018-01-06T01:07:22.560Z,5.6
2018-01-06T01:08:22.563Z,5.68
2018-01-06T01:09:22.545Z,5.72
2018-01-06T01:10:22.533Z,5.76
2018-01-06T01:11:22.519Z,5.74
2018-01-06T01:12:22.497Z,5.81
2018-01-06T01:13:22.485Z,5.78
2018-01-06T01:14:22.473Z,5.82
2018-01-06T01:15:22.477Z,5.96
2018-01-06T01:16:22.457Z,5.9
2018-01-06T01:17:22.441Z,5.9
2018-01-06T01:18:22.422Z,5.97
2018-01-06T01:19:22.455Z,5.93
2018-01-06T01:20:22.412Z,5.93
2018-01-06T01:21:22.390Z,5.94
2018-01-06T01:22:22.392Z,5.91
2018-01-06T01:23:22.363Z,6.03
2018-01-06T01:24:22.345Z,6.04
2018-01-06T01:25:22.078Z,6.06
2018-01-06T01:26:22.340Z,6.14
2018-01-06T01:27:22.320Z,6.11
2018-01-06T01:28:22.310Z,6.09
2018-01-06T01:29:22.289Z,6.03
2018-01-06T01:30:22.265Z,6.04
2018-01-06T01:31:22.272Z,6.09
2018-01-06T01:32:22.249Z,6.03
2018-01-06T01:33:22.233Z,6.06
2018-01-06T01:34:22.221Z,6.03
2018-01-06T01:35:22.202Z,6.06
2018-01-06T01:36:22.191Z,6.11
2018-01-06T01:37:22.191Z,6.04
2018-01-06T01:38:22.174Z,6.06
2018-01-06T01:39:22.152Z,6.08
2018-01-06T01:40:22.148Z,6.11
2018-01-06T01:41:22.128Z,6.11
2018-01-06T01:42:22.127Z,6.03
2018-01-06T01:43:22.104Z,6.11
2018-01-06T01:44:22.100Z,6.04
2018-01-06T01:45:22.086Z,6.04
2018-01-06T01:46:22.070Z,6.11
2018-01-06T01:47:22.052Z,6.09
2018-01-06T01:48:22.045Z,6.08
2018-01-06T01:49:22.047Z,6.06
2018-01-06T01:50:22.029Z,6.06
2018-01-06T01:51:21.999Z,6.08
2018-01-06T01:52:22.001Z,5.99
2018-01-06T01:53:21.978Z,6.08
2018-01-06T01:54:21.972Z,6.08
2018-01-06T01:55:21.715Z,6.11
2018-01-06T01:56:21.941Z,6.04
2018-01-06T01:57:21.935Z,6.03
2018-01-06T01:58:21.922Z,6.06
2018-01-06T01:59:21.905Z,6.09
2018-01-06T02:00:21.900Z,5.99
2018-01-06T02:01:21.885Z,6.01
2018-01-06T02:02:21.884Z,6.04
2018-01-06T02:03:21.859Z,6.04
2018-01-06T02:04:21.858Z,5.96
2018-01-06T02:05:21.844Z,6.04
2018-01-06T02:06:21.836Z,5.96
2018-01-06T02:07:21.807Z,6.03
2018-01-06T02:08:21.789Z,5.96
2018-01-06T02:09:21.784Z,5.97
2018-01-06T02:10:21.524Z,5.97
2018-01-06T02:11:21.771Z,5.96
2018-01-06T02:12:21.763Z,5.91
2018-01-06T02:13:21.736Z,5.9
2018-01-06T02:14:21.741Z,5.94
2018-01-06T02:15:21.704Z,5.97
2018-01-06T02:16:21.738Z,5.91
2018-01-06T02:17:21.673Z,5.93
2018-01-06T02:18:21.677Z,5.89
2018-01-06T02:19:21.402Z,5.89
2018-01-06T02:20:21.652Z,5.85
2018-01-06T02:21:21.634Z,5.91
2018-01-06T02:22:21.612Z,5.86
2018-01-06T02:23:21.617Z,5.9
2018-01-06T02:24:21.601Z,5.81
2018-01-06T02:25:21.590Z,5.86
2018-01-06T02:26:21.571Z,5.9
2018-01-06T02:27:21.559Z,5.86
2018-01-06T02:28:21.538Z,5.83
2018-01-06T02:29:21.525Z,5.82
2018-01-06T02:30:21.530Z,5.82
2018-01-06T02:31:21.495Z,5.9
2018-01-06T02:32:21.502Z,5.86
2018-01-06T02:33:21.470Z,5.83
2018-01-06T02:34:21.465Z,5.85
2018-01-06T02:35:21.444Z,5.89
2018-01-06T02:36:21.440Z,5.96
2018-01-06T02:37:21.435Z,5.9
2018-01-06T02:38:21.424Z,5.86
2018-01-06T02:39:21.408Z,5.94
2018-01-06T02:40:21.390Z,5.96
2018-01-06T02:41:21.379Z,6.01
2018-01-06T02:42:21.366Z,6
2018-01-06T02:43:21.345Z,6
2018-01-06T02:44:21.336Z,6.06
2018-01-06T02:45:21.336Z,6.03
2018-01-06T02:46:21.050Z,6.09
2018-01-06T02:47:21.042Z,6.06
2018-01-06T02:48:21.289Z,5.97
2018-01-06T02:49:21.282Z,5.91
2018-01-06T02:50:21.260Z,5.96
2018-01-06T02:51:21.248Z,5.9
2018-01-06T02:52:21.231Z,5.9
2018-01-06T02:53:20.965Z,5.85
2018-01-06T02:54:21.220Z,5.85
2018-01-06T02:55:21.207Z,5.81
2018-01-06T02:56:21.193Z,5.81
2018-01-06T02:57:21.186Z,5.76
2018-01-06T02:58:21.175Z,5.76
2018-01-06T02:59:21.147Z,5.76
2018-01-06T03:00:21.136Z,5.75
2018-01-06T03:01:21.175Z,5.74
2018-01-06T03:02:20.859Z,5.71
2018-01-06T03:03:21.107Z,5.67
2018-01-06T03:04:21.081Z,5.64
2018-01-06T03:05:21.063Z,5.56
2018-01-06T03:06:21.052Z,5.61
2018-01-06T03:07:21.039Z,5.56
2018-01-06T03:08:21.082Z,5.56
2018-01-06T03:09:21.015Z,5.58
2018-01-06T03:10:21.008Z,5.57
2018-01-06T03:11:20.996Z,5.56
2018-01-06T03:12:20.981Z,5.6
2018-01-06T03:13:20.968Z,5.54
2018-01-06T03:14:20.955Z,5.56
2018-01-06T03:15:20.957Z,5.54
2018-01-06T03:16:20.923Z,5.42
2018-01-06T03:17:20.929Z,5.45
2018-01-06T03:18:20.915Z,5.42
2018-01-06T03:19:20.920Z,5.4
2018-01-06T03:20:20.903Z,5.4
2018-01-06T03:21:20.869Z,5.38
2018-01-06T03:22:20.861Z,5.39
2018-01-06T03:23:20.589Z,5.35
2018-01-06T03:24:20.594Z,5.28
2018-01-06T03:25:20.805Z,5.3
2018-01-06T03:26:20.801Z,5.33
2018-01-06T03:27:20.794Z,5.27
2018-01-06T03:28:20.849Z,5.24
2018-01-06T03:29:20.754Z,5.2
2018-01-06T03:30:20.768Z,5.27
2018-01-06T03:31:20.752Z,5.18
2018-01-06T03:32:20.781Z,5.21
2018-01-06T03:33:20.739Z,5.21
2018-01-06T03:34:20.690Z,5.22
2018-01-06T03:35:20.420Z,5.13
2018-01-06T03:36:20.679Z,5.12
2018-01-06T03:37:20.666Z,5.15
2018-01-06T03:38:20.654Z,5.06
2018-01-06T03:39:20.635Z,5.22
2018-01-06T03:40:20.615Z,5.15
2018-01-06T03:41:20.611Z,5.03
2018-01-06T03:42:20.594Z,5.06
2018-01-06T03:43:20.317Z,5.09
2018-01-06T03:44:20.566Z,5.04
2018-01-06T03:45:20.545Z,5.03
2018-01-06T03:46:20.543Z,5.07
2018-01-06T03:47:20.532Z,5
2018-01-06T03:48:20.510Z,4.99
2018-01-06T03:49:20.492Z,4.97
2018-01-06T03:50:20.479Z,4.97
2018-01-06T03:51:20.206Z,4.97
2018-01-06T03:52:20.203Z,4.88
2018-01-06T03:53:20.448Z,4.97
2018-01-06T03:54:20.445Z,4.96
2018-01-06T03:55:20.420Z,4.92
2018-01-06T03:56:20.397Z,4.94
2018-01-06T03:57:20.395Z,4.96
2018-01-06T03:58:20.377Z,4.94
2018-01-06T03:59:20.363Z,4.91
2018-01-06T04:00:20.353Z,4.89
2018-01-06T04:01:20.329Z,4.91
2018-01-06T04:02:20.320Z,4.85
2018-01-06T04:03:20.315Z,4.89
2018-01-06T04:04:20.302Z,4.97
2018-01-06T04:05:20.289Z,4.89
2018-01-06T04:06:20.024Z,4.85
2018-01-06T04:07:20.307Z,4.86
2018-01-06T04:08:20.244Z,4.86
2018-01-06T04:09:20.268Z,4.73
2018-01-06T04:10:20.212Z,4.78
2018-01-06T04:11:20.200Z,4.82
2018-01-06T04:12:20.193Z,4.84
2018-01-06T04:13:20.170Z,4.8
2018-01-06T04:14:20.184Z,4.82
2018-01-06T04:15:20.175Z,4.82
2018-01-06T04:16:20.134Z,4.82
2018-01-06T04:17:20.134Z,4.69
2018-01-06T04:18:20.121Z,4.78
2018-01-06T04:19:20.153Z,4.75
2018-01-06T04:20:20.084Z,4.72
2018-01-06T04:21:19.824Z,4.69
2018-01-06T04:22:20.051Z,4.7
2018-01-06T04:23:20.047Z,4.7
2018-01-06T04:24:20.029Z,4.7
2018-01-06T04:25:20.020Z,4.67
2018-01-06T04:26:19.749Z,4.63
2018-01-06T04:27:20.006Z,4.8
2018-01-06T04:28:19.979Z,4.75
2018-01-06T04:29:19.963Z,4.78
2018-01-06T04:30:19.949Z,4.65
2018-01-06T04:31:20.353Z,4.67
2018-01-06T04:32:19.915Z,4.65
2018-01-06T04:33:19.900Z,4.65
2018-01-06T04:34:19.895Z,4.63
2018-01-06T04:35:19.887Z,4.62
2018-01-06T04:36:19.923Z,4.67
2018-01-06T04:37:19.849Z,4.65
2018-01-06T04:38:19.836Z,4.63
2018-01-06T04:39:19.829Z,4.6
2018-01-06T04:40:19.810Z,4.62
2018-01-06T04:41:19.802Z,4.65
2018-01-06T04:42:19.804Z,4.67
2018-01-06T04:43:19.767Z,4.6
2018-01-06T04:44:19.761Z,4.65
2018-01-06T04:45:19.759Z,4.59
2018-01-06T04:46:19.741Z,4.75
2018-01-06T04:47:19.453Z,4.6
2018-01-06T04:48:19.698Z,4.62
2018-01-06T04:49:19.438Z,4.6
2018-01-06T04:50:19.673Z,4.77
2018-01-06T04:51:19.659Z,4.75
2018-01-06T04:52:19.654Z,4.67
2018-01-06T04:53:19.653Z,4.75
2018-01-06T04:54:19.615Z,4.8
2018-01-06T04:55:19.611Z,4.73
2018-01-06T04:56:19.336Z,4.82
2018-01-06T04:57:19.595Z,4.88
2018-01-06T04:58:19.575Z,5
2018-01-06T04:59:19.555Z,4.99
2018-01-06T05:00:19.544Z,4.99
2018-01-06T05:01:19.531Z,5.07
2018-01-06T05:02:19.540Z,5.13
2018-01-06T05:03:19.504Z,5.15
2018-01-06T05:04:19.492Z,5.3
2018-01-06T05:05:19.484Z,5.28
2018-01-06T05:06:19.454Z,5.3
2018-01-06T05:07:19.455Z,5.39
2018-01-06T05:08:19.183Z,5.43
2018-01-06T05:09:19.428Z,5.53
2018-01-06T05:10:19.421Z,5.49
2018-01-06T05:11:19.401Z,5.54
2018-01-06T05:12:19.396Z,5.61
2018-01-06T05:13:19.131Z,5.58
2018-01-06T05:14:19.363Z,5.6
2018-01-06T05:15:19.339Z,5.72
2018-01-06T05:16:19.342Z,5.76
2018-01-06T05:17:19.314Z,5.91
2018-01-06T05:18:19.303Z,5.79
2018-01-06T05:19:19.286Z,5.83
2018-01-06T05:20:19.274Z,5.81
2018-01-06T05:21:19.270Z,5.83
2018-01-06T05:22:19.258Z,5.97
2018-01-06T05:23:19.260Z,5.86
2018-01-06T05:24:19.239Z,5.93
2018-01-06T05:25:19.219Z,5.9
2018-01-06T05:26:19.222Z,5.93
2018-01-06T05:27:19.194Z,5.85
2018-01-06T05:28:19.180Z,5.81
2018-01-06T05:29:19.166Z,5.82
2018-01-06T05:30:19.157Z,5.83
2018-01-06T05:31:19.131Z,5.89
2018-01-06T05:32:18.871Z,5.79
2018-01-06T05:33:19.114Z,5.79
2018-01-06T05:34:19.110Z,5.76
2018-01-06T05:35:19.104Z,5.71
2018-01-06T05:36:18.818Z,5.72
2018-01-06T05:37:19.078Z,5.68
2018-01-06T05:38:19.049Z,5.68
2018-01-06T05:39:19.027Z,5.6
2018-01-06T05:40:18.766Z,5.63
2018-01-06T05:41:19.016Z,5.53
2018-01-06T05:42:19.023Z,5.53
2018-01-06T05:43:18.734Z,5.51
2018-01-06T05:44:18.707Z,5.45
2018-01-06T05:45:18.965Z,5.54
2018-01-06T05:46:18.997Z,5.46
2018-01-06T05:47:18.924Z,5.43
2018-01-06T05:48:18.933Z,5.39
2018-01-06T05:49:18.906Z,5.39
2018-01-06T05:50:18.895Z,5.36
2018-01-06T05:51:18.884Z,5.35
2018-01-06T05:52:18.878Z,5.28
2018-01-06T05:53:18.857Z,5.27
2018-01-06T05:54:18.835Z,5.27
2018-01-06T05:55:18.824Z,5.25
2018-01-06T05:56:18.301Z,5.22
2018-01-06T05:57:18.553Z,5.13
2018-01-06T05:58:18.785Z,5.2
2018-01-06T05:59:18.769Z,5.12
2018-01-06T06:00:18.758Z,5.13
2018-01-06T06:01:18.502Z,5.09
2018-01-06T06:02:18.745Z,5.04
2018-01-06T06:03:18.726Z,4.97
2018-01-06T06:04:18.706Z,5.02
2018-01-06T06:05:18.707Z,5.04
2018-01-06T06:06:18.682Z,5.04
2018-01-06T06:07:18.666Z,4.99
2018-01-06T06:08:18.673Z,5
2018-01-06T06:09:18.397Z,4.99
2018-01-06T06:10:18.374Z,4.94
2018-01-06T06:11:18.368Z,4.92
2018-01-06T06:12:18.596Z,4.96
2018-01-06T06:13:18.583Z,4.88
2018-01-06T06:14:18.625Z,4.88
2018-01-06T06:15:18.576Z,4.96
2018-01-06T06:16:18.551Z,4.89
2018-01-06T06:17:18.529Z,4.84
2018-01-06T06:18:18.519Z,4.78
2018-01-06T06:19:18.505Z,4.78
2018-01-06T06:20:18.511Z,4.82
2018-01-06T06:21:18.502Z,4.82
2018-01-06T06:22:18.482Z,4.8
2018-01-06T06:23:17.943Z,4.78
2018-01-06T06:24:18.458Z,4.78
2018-01-06T06:25:18.459Z,4.82
2018-01-06T06:26:18.418Z,4.73
2018-01-06T06:27:17.886Z,4.82
2018-01-06T06:28:18.386Z,4.69
2018-01-06T06:29:18.379Z,4.7
2018-01-06T06:30:18.124Z,4.69
2018-01-06T06:31:18.351Z,4.66
2018-01-06T06:32:18.073Z,4.67
2018-01-06T06:33:18.331Z,4.7
2018-01-06T06:34:18.312Z,4.62
2018-01-06T06:35:18.298Z,4.65
2018-01-06T06:36:18.283Z,4.69
2018-01-06T06:37:18.279Z,4.73
2018-01-06T06:38:18.250Z,4.78
2018-01-06T06:39:18.242Z,4.75
2018-01-06T06:40:17.983Z,4.73
2018-01-06T06:41:18.207Z,4.69
2018-01-06T06:42:18.209Z,4.69
2018-01-06T06:43:18.188Z,4.67
2018-01-06T06:44:17.657Z,4.69
2018-01-06T06:45:18.159Z,4.62
2018-01-06T06:46:18.143Z,4.63
2018-01-06T06:47:18.233Z,4.65
2018-01-06T06:48:17.866Z,4.7
2018-01-06T06:49:18.107Z,4.66
2018-01-06T06:50:18.109Z,4.63
2018-01-06T06:51:18.088Z,4.63
2018-01-06T06:52:18.071Z,4.63
2018-01-06T06:53:18.079Z,4.65
2018-01-06T06:54:18.038Z,4.66
2018-01-06T06:55:17.774Z,4.54
2018-01-06T06:56:18.025Z,4.59
2018-01-06T06:57:18.013Z,4.5
2018-01-06T06:58:18.014Z,4.48
2018-01-06T06:59:17.967Z,4.54
2018-01-06T07:00:17.979Z,4.51
2018-01-06T07:01:17.948Z,4.51
2018-01-06T07:02:17.938Z,4.52
2018-01-06T07:03:17.652Z,4.52
2018-01-06T07:04:17.915Z,4.51
2018-01-06T07:05:17.892Z,4.51
2018-01-06T07:06:17.618Z,4.47
2018-01-06T07:07:17.863Z,4.54
2018-01-06T07:08:17.860Z,4.55
2018-01-06T07:09:17.833Z,4.47
2018-01-06T07:10:17.558Z,4.5
2018-01-06T07:11:17.801Z,4.52
2018-01-06T07:12:17.804Z,4.48
2018-01-06T07:13:17.520Z,4.55
2018-01-06T07:14:17.842Z,4.51
2018-01-06T07:15:17.755Z,4.54
2018-01-06T07:16:17.740Z,4.5
2018-01-06T07:17:17.737Z,4.48
2018-01-06T07:18:17.723Z,4.51
2018-01-06T07:19:17.710Z,4.51
2018-01-06T07:20:17.431Z,4.45
2018-01-06T07:21:17.672Z,4.63
2018-01-06T07:22:17.394Z,4.48
2018-01-06T07:23:17.645Z,4.52
2018-01-06T07:24:17.372Z,4.59
2018-01-06T07:25:17.620Z,4.62
2018-01-06T07:26:17.621Z,4.69
2018-01-06T07:27:17.594Z,4.62
2018-01-06T07:28:17.070Z,4.62
2018-01-06T07:29:17.554Z,4.65
2018-01-06T07:30:17.552Z,4.62
2018-01-06T07:31:17.532Z,4.62
2018-01-06T07:32:17.260Z,4.7
2018-01-06T07:33:17.505Z,4.69
2018-01-06T07:34:17.494Z,4.65
2018-01-06T07:35:17.225Z,4.8
2018-01-06T07:36:17.461Z,4.6
2018-01-06T07:37:17.447Z,4.72
2018-01-06T07:38:17.453Z,4.73
2018-01-06T07:39:17.435Z,4.75
2018-01-06T07:40:17.411Z,4.8
2018-01-06T07:41:17.405Z,4.78
2018-01-06T07:42:17.381Z,4.78
2018-01-06T07:43:17.375Z,4.82
2018-01-06T07:44:17.355Z,4.85
2018-01-06T07:45:17.367Z,4.86
2018-01-06T07:46:17.324Z,4.86
2018-01-06T07:47:17.068Z,4.89
2018-01-06T07:48:17.313Z,4.92
2018-01-06T07:49:17.025Z,4.94
2018-01-06T07:50:17.018Z,4.97
2018-01-06T07:51:17.257Z,4.97
2018-01-06T07:52:17.253Z,5
2018-01-06T07:53:16.985Z,5.03
2018-01-06T07:54:17.218Z,5.07
2018-01-06T07:55:17.202Z,5.1
2018-01-06T07:56:17.197Z,5.02
2018-01-06T07:57:17.178Z,5.12
2018-01-06T07:58:17.164Z,5.09
2018-01-06T07:59:17.161Z,5.06
2018-01-06T08:00:16.894Z,5.18
2018-01-06T08:01:17.136Z,5.12
2018-01-06T08:02:17.126Z,5.17
2018-01-06T08:03:17.099Z,5.13
2018-01-06T08:04:17.111Z,5.13
2018-01-06T08:05:16.814Z,5.24
2018-01-06T08:06:17.069Z,5.2
2018-01-06T08:07:16.795Z,5.21
2018-01-06T08:08:17.033Z,5.22
2018-01-06T08:09:17.019Z,5.28
2018-01-06T08:10:16.752Z,5.25
2018-01-06T08:11:16.750Z,5.25
2018-01-06T08:12:16.982Z,5.25
2018-01-06T08:13:16.734Z,5.36
2018-01-06T08:14:16.967Z,5.43
2018-01-06T08:15:16.683Z,5.45
2018-01-06T08:16:16.953Z,5.43
2018-01-06T08:17:16.922Z,5.51
2018-01-06T08:18:16.929Z,5.54
2018-01-06T08:19:16.636Z,5.53
2018-01-06T08:20:17.131Z,5.48
2018-01-06T08:21:16.867Z,5.53
2018-01-06T08:22:16.865Z,5.54
2018-01-06T08:23:16.865Z,5.61
2018-01-06T08:24:16.826Z,5.58
2018-01-06T08:25:16.305Z,5.6
2018-01-06T08:26:16.543Z,5.63
2018-01-06T08:27:16.277Z,5.6
2018-01-06T08:28:16.536Z,5.57
2018-01-06T08:29:16.251Z,5.6
2018-01-06T08:30:16.763Z,5.56
2018-01-06T08:31:16.478Z,5.63
2018-01-06T08:32:16.723Z,5.71
2018-01-06T08:33:16.459Z,5.67
2018-01-06T08:34:16.454Z,5.76
2018-01-06T08:35:16.700Z,5.74
2018-01-06T08:36:16.681Z,5.81
2018-01-06T08:37:16.147Z,5.81
2018-01-06T08:38:16.658Z,5.83
2018-01-06T08:39:16.641Z,5.75
2018-01-06T08:40:16.627Z,5.78
2018-01-06T08:41:16.615Z,5.9
2018-01-06T08:42:16.353Z,5.82
2018-01-06T08:43:16.336Z,5.85
2018-01-06T08:44:16.573Z,5.9
2018-01-06T08:45:16.312Z,5.86
2018-01-06T08:46:16.292Z,5.89
2018-01-06T08:47:16.284Z,5.9
2018-01-06T08:48:16.533Z,5.93
2018-01-06T08:49:16.256Z,5.91
2018-01-06T08:50:16.508Z,5.93
2018-01-06T08:51:16.484Z,5.99
2018-01-06T08:52:16.291Z,6
2018-01-06T08:53:16.463Z,6
2018-01-06T08:54:16.454Z,6.03
2018-01-06T08:55:16.456Z,6.06
2018-01-06T08:56:16.427Z,6.08
2018-01-06T08:57:16.153Z,6.14
2018-01-06T08:58:16.408Z,6.04
2018-01-06T08:59:16.184Z,6.11
2018-01-06T09:00:15.870Z,6.15
2018-01-06T09:01:16.363Z,6.27
2018-01-06T09:02:16.356Z,6.34
2018-01-06T09:03:16.335Z,6.28
2018-01-06T09:04:16.341Z,6.21
2018-01-06T09:05:16.322Z,6.34
2018-01-06T09:06:16.313Z,6.34
2018-01-06T09:07:16.323Z,6.38
2018-01-06T09:08:16.278Z,6.38
2018-01-06T09:09:16.273Z,6.54
2018-01-06T09:10:16.269Z,6.54
2018-01-06T09:11:16.239Z,6.51
2018-01-06T09:12:16.244Z,6.55
2018-01-06T09:13:16.217Z,6.56
2018-01-06T09:14:16.222Z,6.7
2018-01-06T09:15:15.947Z,6.71
2018-01-06T09:16:16.178Z,6.7
2018-01-06T09:17:15.936Z,6.71
2018-01-06T09:18:16.160Z,6.88
2018-01-06T09:19:16.148Z,6.88
2018-01-06T09:20:15.918Z,6.88
2018-01-06T09:21:16.143Z,6.97
2018-01-06T09:22:16.143Z,6.91
2018-01-06T09:23:16.136Z,7.05
2018-01-06T09:24:16.168Z,7.12
2018-01-06T09:25:16.086Z,7.17
2018-01-06T09:26:16.134Z,7.17
2018-01-06T09:27:15.810Z,7.13
2018-01-06T09:28:16.093Z,7.21
2018-01-06T09:29:16.044Z,7.25
2018-01-06T09:30:15.756Z,7.31
2018-01-06T09:31:16.013Z,7.39
2018-01-06T09:32:16.008Z,7.39
2018-01-06T09:33:15.983Z,7.43
2018-01-06T09:34:15.973Z,7.49
2018-01-06T09:35:16.032Z,7.58
2018-01-06T09:36:15.958Z,7.57
2018-01-06T09:37:15.953Z,7.67
2018-01-06T09:38:15.948Z,7.67
2018-01-06T09:39:15.930Z,7.67
2018-01-06T09:40:15.923Z,7.82
2018-01-06T09:41:15.722Z,7.8
2018-01-06T09:42:15.904Z,7.75
2018-01-06T09:43:15.628Z,7.8
2018-01-06T09:44:15.669Z,7.83
2018-01-06T09:45:15.855Z,7.9
2018-01-06T09:46:15.580Z,7.9
2018-01-06T09:47:15.829Z,8.02
2018-01-06T09:48:15.827Z,8
2018-01-06T09:49:15.811Z,8.07
2018-01-06T09:50:15.552Z,7.98
2018-01-06T09:51:15.529Z,8.12
2018-01-06T09:52:15.775Z,8.11
2018-01-06T09:53:15.767Z,8.15
2018-01-06T09:54:15.764Z,8.16
2018-01-06T09:55:15.747Z,8.25
2018-01-06T09:56:15.726Z,8.34
2018-01-06T09:57:15.724Z,8.34
2018-01-06T09:58:15.716Z,8.33
2018-01-06T09:59:15.718Z,8.29
2018-01-06T10:00:15.722Z,8.34
2018-01-06T10:01:15.673Z,8.36
2018-01-06T10:02:15.684Z,8.3
2018-01-06T10:03:15.667Z,8.44
2018-01-06T10:04:15.646Z,8.47
2018-01-06T10:05:15.652Z,8.45
2018-01-06T10:06:15.638Z,8.52
2018-01-06T10:07:15.615Z,8.5
2018-01-06T10:08:15.636Z,8.56
2018-01-06T10:09:15.618Z,8.55
2018-01-06T10:10:15.587Z,8.66
2018-01-06T10:11:15.331Z,8.74
2018-01-06T10:12:15.330Z,8.81
2018-01-06T10:13:15.554Z,8.8
2018-01-06T10:14:15.021Z,8.92
2018-01-06T10:15:15.289Z,8.89
2018-01-06T10:16:15.279Z,8.87
2018-01-06T10:17:15.508Z,8.92
2018-01-06T10:18:15.238Z,8.92
2018-01-06T10:19:15.269Z,8.87
2018-01-06T10:20:15.230Z,8.91
2018-01-06T10:21:15.465Z,8.91
2018-01-06T10:22:15.200Z,8.91
2018-01-06T10:23:15.464Z,8.92
2018-01-06T10:24:15.211Z,8.95
2018-01-06T10:25:15.453Z,8.92
2018-01-06T10:26:15.413Z,8.96
2018-01-06T10:27:15.412Z,8.99
2018-01-06T10:28:15.389Z,8.92
2018-01-06T10:29:15.393Z,8.95
2018-01-06T10:30:15.128Z,8.92
2018-01-06T10:31:15.119Z,8.95
2018-01-06T10:32:15.368Z,8.98
2018-01-06T10:33:14.875Z,8.89
2018-01-06T10:34:15.098Z,8.91
2018-01-06T10:35:15.068Z,8.83
2018-01-06T10:36:15.328Z,8.8
2018-01-06T10:37:15.327Z,8.81
2018-01-06T10:38:15.313Z,8.81
2018-01-06T10:39:15.285Z,8.83
2018-01-06T10:40:15.281Z,8.79
2018-01-06T10:41:15.021Z,8.81
2018-01-06T10:42:15.023Z,8.83
2018-01-06T10:43:15.265Z,8.83
2018-01-06T10:44:15.230Z,8.81
2018-01-06T10:45:14.965Z,8.89
2018-01-06T10:46:15.222Z,8.84
2018-01-06T10:47:15.213Z,8.83
2018-01-06T10:48:14.938Z,8.86
2018-01-06T10:49:15.200Z,8.81
2018-01-06T10:50:14.932Z,8.84
2018-01-06T10:51:15.167Z,8.92
2018-01-06T10:52:15.149Z,8.95
2018-01-06T10:53:14.924Z,8.86
2018-01-06T10:54:15.130Z,8.94
2018-01-06T10:55:15.116Z,8.94
2018-01-06T10:56:15.156Z,8.87
2018-01-06T10:57:15.117Z,8.86
2018-01-06T10:58:14.579Z,8.83
2018-01-06T10:59:15.088Z,8.81
2018-01-06T11:00:15.086Z,8.86
2018-01-06T11:01:15.059Z,8.79
2018-01-06T11:02:15.071Z,8.86
2018-01-06T11:03:15.049Z,8.83
2018-01-06T11:04:14.774Z,8.86
2018-01-06T11:05:15.036Z,8.86
2018-01-06T11:06:15.008Z,8.87
2018-01-06T11:07:15.069Z,8.86
2018-01-06T11:08:14.999Z,8.95
2018-01-06T11:09:14.985Z,8.94
2018-01-06T11:10:14.725Z,8.98
2018-01-06T11:11:14.962Z,8.96
2018-01-06T11:12:14.723Z,8.94
2018-01-06T11:13:14.969Z,8.86
2018-01-06T11:14:14.942Z,8.92
2018-01-06T11:15:14.680Z,8.89
2018-01-06T11:16:14.938Z,8.91
2018-01-06T11:17:14.907Z,8.96
2018-01-06T11:18:14.932Z,8.94
2018-01-06T11:19:14.628Z,8.92
2018-01-06T11:20:14.898Z,8.98
2018-01-06T11:21:14.617Z,8.91
2018-01-06T11:22:14.616Z,8.94
2018-01-06T11:23:14.597Z,8.95
2018-01-06T11:24:14.833Z,8.94
2018-01-06T11:25:14.559Z,8.83
2018-01-06T11:26:14.813Z,8.92
2018-01-06T11:27:14.796Z,8.95
2018-01-06T11:28:15.208Z,8.86
2018-01-06T11:29:14.809Z,8.92
2018-01-06T11:30:14.797Z,8.95
2018-01-06T11:31:14.774Z,8.89
2018-01-06T11:32:14.749Z,8.83
2018-01-06T11:33:14.781Z,8.89
2018-01-06T11:34:14.725Z,8.8
2018-01-06T11:35:14.726Z,8.91
2018-01-06T11:36:14.734Z,8.91
2018-01-06T11:37:14.712Z,8.92
2018-01-06T11:38:14.690Z,8.86
2018-01-06T11:39:14.417Z,8.94
2018-01-06T11:40:14.680Z,8.98
2018-01-06T11:41:14.660Z,8.98
2018-01-06T11:42:14.401Z,8.99
2018-01-06T11:43:14.639Z,9.08
2018-01-06T11:44:14.361Z,9.01
2018-01-06T11:45:14.351Z,9.14
2018-01-06T11:46:14.609Z,9.11
2018-01-06T11:47:14.666Z,9.15
2018-01-06T11:48:14.586Z,9.15
2018-01-06T11:49:14.576Z,9.28
2018-01-06T11:50:14.303Z,9.31
2018-01-06T11:51:14.563Z,9.33
2018-01-06T11:52:14.547Z,9.31
2018-01-06T11:53:14.534Z,9.39
2018-01-06T11:54:14.529Z,9.47
2018-01-06T11:55:14.533Z,9.51
2018-01-06T11:56:14.509Z,9.54
2018-01-06T11:57:14.504Z,9.58
2018-01-06T11:58:14.240Z,9.57
2018-01-06T11:59:14.221Z,9.69
2018-01-06T12:00:14.461Z,9.71
2018-01-06T12:01:14.484Z,9.74
2018-01-06T12:02:14.462Z,9.79
2018-01-06T12:03:14.480Z,9.87
2018-01-06T12:04:14.423Z,9.83
2018-01-06T12:05:14.165Z,9.89
2018-01-06T12:06:14.420Z,9.91
2018-01-06T12:07:14.459Z,10.02
2018-01-06T12:08:14.388Z,10.04
2018-01-06T12:09:14.124Z,10.05
2018-01-06T12:10:14.367Z,10.09
2018-01-06T12:11:14.357Z,10.12
2018-01-06T12:12:14.356Z,10.11
2018-01-06T12:13:14.359Z,10.12
2018-01-06T12:14:14.066Z,10.08
2018-01-06T12:15:14.346Z,10.17
2018-01-06T12:16:14.308Z,10.08
2018-01-06T12:17:14.323Z,10.04
2018-01-06T12:18:14.362Z,10.05
2018-01-06T12:19:14.040Z,10.11
2018-01-06T12:20:14.276Z,10.04
2018-01-06T12:21:13.751Z,10.02
2018-01-06T12:22:14.264Z,10.02
2018-01-06T12:23:14.247Z,10.04
2018-01-06T12:24:14.685Z,10.01
2018-01-06T12:25:14.220Z,10.08
2018-01-06T12:26:14.227Z,10.04
2018-01-06T12:27:14.204Z,10.11
2018-01-06T12:28:14.213Z,10.14
2018-01-06T12:29:14.185Z,10.09
2018-01-06T12:30:14.178Z,10.09
2018-01-06T12:31:13.910Z,10.17
2018-01-06T12:32:14.159Z,10.23
2018-01-06T12:33:14.153Z,10.2
2018-01-06T12:34:14.147Z,10.23
2018-01-06T12:35:14.163Z,10.2
2018-01-06T12:36:14.120Z,10.29
2018-01-06T12:37:14.117Z,10.32
2018-01-06T12:38:14.109Z,10.33
2018-01-06T12:39:14.278Z,10.29
2018-01-06T12:40:14.216Z,10.32
2018-01-06T12:41:13.830Z,10.47
2018-01-06T12:42:14.075Z,10.44
2018-01-06T12:43:13.802Z,10.4
2018-01-06T12:44:14.047Z,10.45
2018-01-06T12:45:14.050Z,10.59
2018-01-06T12:46:13.770Z,10.53
2018-01-06T12:47:14.023Z,10.63
2018-01-06T12:48:14.006Z,10.67
2018-01-06T12:49:13.738Z,10.63
2018-01-06T12:50:13.992Z,10.79
2018-01-06T12:51:13.982Z,10.74
2018-01-06T12:52:13.969Z,10.73
2018-01-06T12:53:13.966Z,10.74
2018-01-06T12:54:13.712Z,10.71
2018-01-06T12:55:13.957Z,10.74
2018-01-06T12:56:13.935Z,10.71
2018-01-06T12:57:13.927Z,10.76
2018-01-06T12:58:13.922Z,10.73
2018-01-06T12:59:13.912Z,10.85
2018-01-06T13:00:13.920Z,10.94
2018-01-06T13:01:13.897Z,10.82
2018-01-06T13:02:13.899Z,10.89
2018-01-06T13:03:13.885Z,10.82
2018-01-06T13:04:13.865Z,10.86
2018-01-06T13:05:13.863Z,10.85
2018-01-06T13:06:13.858Z,10.92
2018-01-06T13:07:13.841Z,11.03
2018-01-06T13:08:13.569Z,10.92
2018-01-06T13:09:13.836Z,10.91
2018-01-06T13:10:13.808Z,10.91
2018-01-06T13:11:13.804Z,10.86
2018-01-06T13:12:13.795Z,10.91
2018-01-06T13:13:13.786Z,10.82
2018-01-06T13:14:13.526Z,10.82
2018-01-06T13:15:13.767Z,10.86
2018-01-06T13:16:13.750Z,10.76
2018-01-06T13:17:13.839Z,10.76
2018-01-06T13:18:13.762Z,10.76
2018-01-06T13:19:13.734Z,10.74